createdAt,value
2018-02-21T00:00:06.393Z,26.69
2018-02-21T00:01:06.357Z,26.72
2018-02-21T00:02:06.336Z,26.71
2018-02-21T00:03:06.327Z,26.63
2018-02-21T00:04:06.476Z,26.64
2018-02-21T00:05:06.349Z,26.56
2018-02-21T00:06:06.244Z,26.57
2018-02-21T00:07:06.220Z,26.56
2018-02-21T00:08:06.187Z,26.54
2018-02-21T00:09:06.171Z,26.52
2018-02-21T00:12:06.250Z,26.32
2018-02-21T00:13:06.067Z,26.32
2018-02-21T00:14:06.042Z,26.26
2018-02-21T00:15:06.035Z,26.31
2018-02-21T00:16:05.994Z,26.22
2018-02-21T00:17:06.025Z,26.19
2018-02-21T00:18:06.159Z,26.06
2018-02-21T00:19:05.923Z,26.09
2018-02-21T00:20:06.456Z,26.12
2018-02-21T00:21:05.962Z,26.07
2018-02-21T00:22:05.868Z,26.04
2018-02-21T00:23:06.050Z,26.03
2018-02-21T00:24:05.829Z,26.00
2018-02-21T00:25:05.794Z,25.96
2018-02-21T00:26:05.777Z,25.96
2018-02-21T00:27:05.750Z,25.97
2018-02-21T00:28:05.871Z,25.89
2018-02-21T00:29:05.692Z,25.99
2018-02-21T00:30:05.672Z,25.94
2018-02-21T00:31:05.662Z,25.96
2018-02-21T00:32:05.640Z,26.00
2018-02-21T00:33:05.757Z,26.04
2018-02-21T00:34:05.615Z,26.12
2018-02-21T00:35:05.552Z,25.97
2018-02-21T00:36:05.526Z,25.94
2018-02-21T00:37:05.530Z,26.03
2018-02-21T00:38:05.695Z,26.00
2018-02-21T00:39:05.505Z,26.01
2018-02-21T00:40:05.436Z,25.91
2018-02-21T00:41:05.423Z,25.94
2018-02-21T00:42:05.399Z,25.88
2018-02-21T00:43:05.907Z,25.96
2018-02-21T00:44:05.537Z,25.89
2018-02-21T00:45:05.319Z,25.88
2018-02-21T00:46:05.504Z,25.93
2018-02-21T00:47:05.283Z,25.91
2018-02-21T00:48:05.236Z,25.89
2018-02-21T00:49:05.757Z,25.85
2018-02-21T00:50:05.922Z,25.94
2018-02-21T00:51:05.704Z,25.86
2018-02-21T00:52:05.147Z,25.86
2018-02-21T00:53:05.656Z,25.91
2018-02-21T00:54:05.101Z,25.79
2018-02-21T00:55:05.133Z,25.66
2018-02-21T00:56:05.785Z,25.67
2018-02-21T00:57:05.021Z,25.70
2018-02-21T00:58:05.025Z,25.62
2018-02-21T00:59:04.994Z,25.62
2018-02-21T01:00:04.966Z,25.60
2018-02-21T01:01:05.078Z,25.59
2018-02-21T01:02:05.450Z,25.56
2018-02-21T01:03:05.426Z,25.62
2018-02-21T01:04:04.858Z,25.49
2018-02-21T01:05:04.830Z,25.54
2018-02-21T01:06:05.023Z,25.48
2018-02-21T01:07:04.800Z,25.51
2018-02-21T01:08:04.779Z,25.44
2018-02-21T01:09:04.753Z,25.33
2018-02-21T01:10:04.803Z,25.34
2018-02-21T01:11:04.906Z,25.29
2018-02-21T01:12:04.686Z,25.30
2018-02-21T01:13:04.634Z,25.24
2018-02-21T01:14:05.185Z,25.34
2018-02-21T01:15:04.620Z,25.29
2018-02-21T01:16:05.309Z,25.26
2018-02-21T01:17:04.546Z,25.24
2018-02-21T01:18:05.070Z,25.22
2018-02-21T01:19:04.500Z,25.23
2018-02-21T01:20:04.900Z,25.20
2018-02-21T01:21:04.445Z,25.08
2018-02-21T01:22:04.636Z,25.14
2018-02-21T01:23:04.943Z,25.08
2018-02-21T01:24:04.426Z,25.09
2018-02-21T01:25:04.405Z,25.02
2018-02-21T01:26:04.541Z,24.97
2018-02-21T01:27:04.384Z,24.97
2018-02-21T01:28:04.569Z,24.92
2018-02-21T01:29:04.376Z,24.86
2018-02-21T01:30:04.262Z,24.87
2018-02-21T01:31:04.220Z,24.82
2018-02-21T01:32:04.726Z,24.82
2018-02-21T01:33:04.226Z,24.77
2018-02-21T01:34:04.328Z,24.75
2018-02-21T01:35:04.127Z,24.77
2018-02-21T01:36:04.125Z,24.70
2018-02-21T01:37:04.068Z,24.70
2018-02-21T01:38:04.039Z,24.69
2018-02-21T01:39:04.230Z,24.59
2018-02-21T01:40:04.325Z,24.66
2018-02-21T01:41:04.029Z,24.63
2018-02-21T01:42:04.487Z,24.64
2018-02-21T01:43:03.942Z,24.58
2018-02-21T01:44:04.196Z,24.66
2018-02-21T01:45:03.907Z,24.56
2018-02-21T01:46:04.477Z,24.55
2018-02-21T01:47:03.869Z,24.63
2018-02-21T01:48:04.384Z,24.54
2018-02-21T01:49:04.593Z,24.61
2018-02-21T01:50:03.811Z,24.51
2018-02-21T01:51:03.790Z,24.49
2018-02-21T01:52:04.323Z,24.49
2018-02-21T01:53:03.773Z,24.49
2018-02-21T01:54:04.433Z,24.55
2018-02-21T01:55:03.614Z,24.46
2018-02-21T01:56:04.321Z,24.44
2018-02-21T01:57:04.170Z,24.45
2018-02-21T01:58:03.914Z,24.39
2018-02-21T01:59:03.948Z,24.33
2018-02-21T02:00:04.410Z,24.36
2018-02-21T02:01:04.401Z,24.30
2018-02-21T02:02:03.415Z,24.37
2018-02-21T02:03:03.930Z,24.22
2018-02-21T02:04:05.101Z,24.09
2018-02-21T02:05:03.584Z,24.09
2018-02-21T02:06:04.064Z,24.11
2018-02-21T02:07:03.296Z,24.09
2018-02-21T02:08:03.316Z,24.08
2018-02-21T02:09:03.244Z,24.08
2018-02-21T02:10:03.763Z,24.07
2018-02-21T02:11:03.876Z,24.12
2018-02-21T02:12:03.801Z,24.14
2018-02-21T02:13:03.604Z,24.12
2018-02-21T02:14:03.126Z,24.15
2018-02-21T02:15:03.706Z,24.11
2018-02-21T02:16:03.059Z,24.07
2018-02-21T02:17:03.795Z,24.07
2018-02-21T02:18:03.614Z,24.04
2018-02-21T02:19:03.055Z,24.08
2018-02-21T02:20:03.062Z,24.09
2018-02-21T02:21:03.550Z,24.11
2018-02-21T02:22:03.161Z,24.12
2018-02-21T02:23:02.943Z,24.07
2018-02-21T02:24:03.498Z,24.04
2018-02-21T02:25:02.907Z,24.17
2018-02-21T02:26:02.876Z,24.07
2018-02-21T02:27:03.064Z,24.04
2018-02-21T02:28:02.836Z,24.11
2018-02-21T02:29:02.968Z,24.00
2018-02-21T02:30:02.792Z,24.07
2018-02-21T02:31:03.158Z,24.03
2018-02-21T02:32:03.519Z,24.08
2018-02-21T02:33:02.649Z,24.02
2018-02-21T02:34:02.618Z,23.97
2018-02-21T02:35:02.857Z,23.92
2018-02-21T02:36:03.064Z,23.92
2018-02-21T02:37:02.584Z,23.97
2018-02-21T02:38:03.237Z,23.87
2018-02-21T02:39:02.492Z,23.92
2018-02-21T02:40:02.461Z,23.90
2018-02-21T02:41:02.441Z,23.82
2018-02-21T02:42:02.949Z,23.90
2018-02-21T02:43:02.815Z,23.82
2018-02-21T02:44:02.556Z,23.90
2018-02-21T02:45:02.795Z,23.84
2018-02-21T02:46:02.314Z,23.79
2018-02-21T02:47:02.277Z,23.75
2018-02-21T02:48:02.787Z,23.85
2018-02-21T02:49:02.810Z,23.82
2018-02-21T02:50:02.438Z,23.85
2018-02-21T02:51:02.171Z,23.89
2018-02-21T02:52:02.584Z,23.78
2018-02-21T02:53:02.129Z,23.82
2018-02-21T02:54:02.100Z,23.79
2018-02-21T02:55:02.810Z,23.96
2018-02-21T02:56:02.045Z,23.90
2018-02-21T02:57:02.027Z,23.87
2018-02-21T02:58:01.988Z,23.77
2018-02-21T02:59:01.975Z,23.82
2018-02-21T03:00:02.222Z,23.82
2018-02-21T03:01:02.455Z,23.90
2018-02-21T03:02:02.464Z,23.79
2018-02-21T03:03:01.873Z,23.82
2018-02-21T03:04:01.837Z,23.79
2018-02-21T03:05:02.025Z,23.75
2018-02-21T03:06:01.799Z,23.75
2018-02-21T03:07:01.771Z,23.75
2018-02-21T03:08:01.748Z,23.74
2018-02-21T03:09:01.711Z,23.75
2018-02-21T03:10:01.880Z,23.64
2018-02-21T03:11:01.721Z,23.71
2018-02-21T03:12:01.633Z,23.70
2018-02-21T03:13:01.619Z,23.64
2018-02-21T03:14:01.583Z,23.60
2018-02-21T03:15:01.630Z,23.62
2018-02-21T03:16:01.792Z,23.53
2018-02-21T03:17:01.623Z,23.59
2018-02-21T03:18:01.492Z,23.53
2018-02-21T03:19:01.441Z,23.55
2018-02-21T03:20:01.429Z,23.55
2018-02-21T03:21:01.408Z,23.66
2018-02-21T03:22:01.575Z,23.62
2018-02-21T03:23:01.375Z,23.57
2018-02-21T03:24:01.330Z,23.57
2018-02-21T03:25:01.841Z,23.63
2018-02-21T03:26:01.283Z,23.56
2018-02-21T03:27:01.310Z,23.56
2018-02-21T03:28:01.414Z,23.60
2018-02-21T03:29:01.201Z,23.59
2018-02-21T03:30:01.175Z,23.64
2018-02-21T03:31:01.155Z,23.64
2018-02-21T03:32:01.158Z,23.63
2018-02-21T03:33:01.306Z,23.71
2018-02-21T03:34:01.073Z,23.63
2018-02-21T03:35:01.034Z,23.62
2018-02-21T03:36:01.015Z,23.56
2018-02-21T03:37:01.003Z,23.50
2018-02-21T03:38:01.172Z,23.52
2018-02-21T03:39:00.954Z,23.45
2018-02-21T03:40:00.919Z,23.48
2018-02-21T03:41:00.896Z,23.50
2018-02-21T03:42:00.857Z,23.44
2018-02-21T03:43:01.091Z,23.45
2018-02-21T03:44:00.813Z,23.48
2018-02-21T03:45:00.819Z,23.50
2018-02-21T03:46:00.757Z,23.44
2018-02-21T03:47:00.720Z,23.47
2018-02-21T03:48:00.889Z,23.47
2018-02-21T03:49:00.692Z,23.45
2018-02-21T03:50:00.640Z,23.57
2018-02-21T03:51:00.621Z,23.45
2018-02-21T03:52:00.607Z,23.62
2018-02-21T03:53:00.575Z,23.52
2018-02-21T03:54:00.739Z,23.53
2018-02-21T03:55:00.520Z,23.48
2018-02-21T03:56:00.506Z,23.53
2018-02-21T03:57:00.463Z,23.47
2018-02-21T03:58:00.451Z,23.57
2018-02-21T03:59:00.396Z,23.45
2018-02-21T04:00:00.643Z,23.63
2018-02-21T04:01:00.361Z,23.44
2018-02-21T04:02:00.413Z,23.47
2018-02-21T04:03:00.302Z,23.37
2018-02-21T04:04:00.290Z,23.29
2018-02-21T04:05:00.253Z,23.29
2018-02-21T04:06:00.422Z,23.28
2018-02-21T04:07:00.219Z,23.32
2018-02-21T04:08:00.175Z,23.22
2018-02-21T04:09:00.144Z,23.19
2018-02-21T04:10:00.108Z,23.21
2018-02-21T04:11:00.300Z,23.12
2018-02-21T04:12:00.082Z,23.21
2018-02-21T04:13:00.061Z,23.14
2018-02-21T04:14:00.032Z,23.10
2018-02-21T04:15:00.064Z,23.15
2018-02-21T04:16:00.176Z,23.12
2018-02-21T04:16:59.986Z,23.18
2018-02-21T04:17:59.921Z,23.15
2018-02-21T04:18:59.932Z,23.10
2018-02-21T04:19:59.854Z,23.09
2018-02-21T04:21:00.053Z,23.15
2018-02-21T04:21:59.809Z,23.34
2018-02-21T04:22:59.798Z,23.32
2018-02-21T04:23:59.768Z,23.47
2018-02-21T04:24:59.731Z,23.52
2018-02-21T04:25:59.713Z,23.62
2018-02-21T04:26:59.883Z,23.66
2018-02-21T04:27:59.639Z,23.97
2018-02-21T04:28:59.634Z,23.93
2018-02-21T04:29:59.599Z,23.97
2018-02-21T04:30:59.576Z,24.11
2018-02-21T04:31:59.556Z,24.04
2018-02-21T04:32:59.798Z,24.08
2018-02-21T04:33:59.494Z,24.04
2018-02-21T04:34:59.486Z,24.11
2018-02-21T04:35:59.445Z,23.97
2018-02-21T04:36:59.407Z,23.99
2018-02-21T04:37:59.397Z,23.92
2018-02-21T04:38:59.566Z,23.84
2018-02-21T04:39:59.400Z,23.82
2018-02-21T04:40:59.313Z,23.82
2018-02-21T04:41:59.265Z,23.78
2018-02-21T04:42:59.248Z,23.77
2018-02-21T04:43:59.222Z,23.78
2018-02-21T04:44:59.399Z,23.87
2018-02-21T04:45:59.206Z,23.82
2018-02-21T04:46:59.136Z,23.84
2018-02-21T04:47:59.130Z,23.81
2018-02-21T04:48:59.092Z,23.79
2018-02-21T04:49:59.257Z,23.82
2018-02-21T04:50:59.035Z,23.81
2018-02-21T04:51:59.015Z,23.81
2018-02-21T04:52:59.120Z,23.78
2018-02-21T04:53:58.972Z,23.74
2018-02-21T04:54:59.133Z,23.77
2018-02-21T04:55:58.922Z,23.72
2018-02-21T04:56:58.899Z,23.75
2018-02-21T04:57:58.873Z,23.72
2018-02-21T04:58:58.844Z,23.74
2018-02-21T04:59:58.810Z,23.66
2018-02-21T05:00:58.980Z,23.72
2018-02-21T05:01:58.762Z,23.75
2018-02-21T05:02:58.718Z,23.72
2018-02-21T05:03:58.697Z,23.72
2018-02-21T05:04:58.665Z,23.72
2018-02-21T05:05:58.652Z,23.77
2018-02-21T05:06:58.825Z,23.84
2018-02-21T05:07:58.664Z,23.78
2018-02-21T05:08:58.573Z,23.72
2018-02-21T05:09:58.543Z,23.81
2018-02-21T05:10:58.508Z,23.78
2018-02-21T05:11:58.704Z,23.72
2018-02-21T05:12:58.474Z,23.71
2018-02-21T05:13:58.468Z,23.60
2018-02-21T05:14:58.415Z,23.50
2018-02-21T05:15:58.399Z,23.50
2018-02-21T05:16:58.367Z,23.55
2018-02-21T05:17:58.543Z,23.41
2018-02-21T05:18:58.317Z,23.41
2018-02-21T05:19:58.290Z,23.37
2018-02-21T05:20:58.252Z,23.26
2018-02-21T05:21:58.236Z,23.32
2018-02-21T05:22:58.200Z,23.32
2018-02-21T05:23:58.371Z,23.28
2018-02-21T05:24:58.136Z,23.21
2018-02-21T05:25:58.121Z,23.34
2018-02-21T05:26:58.085Z,23.37
2018-02-21T05:27:58.062Z,23.55
2018-02-21T05:28:58.248Z,23.63
2018-02-21T05:29:58.010Z,23.64
2018-02-21T05:30:57.980Z,23.74
2018-02-21T05:31:57.959Z,23.75
2018-02-21T05:32:57.932Z,23.71
2018-02-21T05:33:57.969Z,23.67
2018-02-21T05:34:58.090Z,23.55
2018-02-21T05:35:57.855Z,23.53
2018-02-21T05:36:57.829Z,23.56
2018-02-21T05:37:57.811Z,23.55
2018-02-21T05:38:57.847Z,23.50
2018-02-21T05:39:57.776Z,23.53
2018-02-21T05:40:57.863Z,23.50
2018-02-21T05:41:57.686Z,23.52
2018-02-21T05:42:57.667Z,23.66
2018-02-21T05:43:57.645Z,23.77
2018-02-21T05:44:57.620Z,23.93
2018-02-21T05:45:57.829Z,23.87
2018-02-21T05:46:57.568Z,23.87
2018-02-21T05:47:57.527Z,23.92
2018-02-21T05:48:57.516Z,24.00
2018-02-21T05:49:57.477Z,23.84
2018-02-21T05:50:57.456Z,23.72
2018-02-21T05:51:57.620Z,23.71
2018-02-21T05:52:57.436Z,23.74
2018-02-21T05:53:57.368Z,23.77
2018-02-21T05:54:57.348Z,23.85
2018-02-21T05:55:57.335Z,23.87
2018-02-21T05:56:57.315Z,23.96
2018-02-21T05:57:57.472Z,23.93
2018-02-21T05:58:57.244Z,24.04
2018-02-21T05:59:57.208Z,24.09
2018-02-21T06:00:57.200Z,24.09
2018-02-21T06:01:57.176Z,24.08
2018-02-21T06:02:57.136Z,24.19
2018-02-21T06:03:57.313Z,24.26
2018-02-21T06:04:57.079Z,24.22
2018-02-21T06:05:57.069Z,24.22
2018-02-21T06:06:57.034Z,24.24
2018-02-21T06:07:57.019Z,24.24
2018-02-21T06:08:56.984Z,24.19
2018-02-21T06:09:57.153Z,24.19
2018-02-21T06:10:57.012Z,24.26
2018-02-21T06:11:56.897Z,24.21
2018-02-21T06:12:56.873Z,24.19
2018-02-21T06:13:56.863Z,24.26
2018-02-21T06:14:56.822Z,24.26
2018-02-21T06:15:57.006Z,24.17
2018-02-21T06:16:56.779Z,24.22
2018-02-21T06:17:56.733Z,24.19
2018-02-21T06:18:56.698Z,24.42
2018-02-21T06:19:56.691Z,24.40
2018-02-21T06:20:56.856Z,24.44
2018-02-21T06:21:56.633Z,24.51
2018-02-21T06:22:56.603Z,24.45
2018-02-21T06:23:56.580Z,24.42
2018-02-21T06:24:56.564Z,24.40
2018-02-21T06:25:56.742Z,24.39
2018-02-21T06:26:56.495Z,24.40
2018-02-21T06:27:56.462Z,24.33
2018-02-21T06:28:56.464Z,24.32
2018-02-21T06:29:56.422Z,24.24
2018-02-21T06:30:56.406Z,24.19
2018-02-21T06:31:56.619Z,24.19
2018-02-21T06:32:56.336Z,24.27
2018-02-21T06:33:56.326Z,24.26
2018-02-21T06:34:56.328Z,24.30
2018-02-21T06:35:56.270Z,24.29
2018-02-21T06:36:56.245Z,24.21
2018-02-21T06:37:56.405Z,24.11
2018-02-21T06:38:56.177Z,24.11
2018-02-21T06:39:56.170Z,24.15
2018-02-21T06:40:56.140Z,24.18
2018-02-21T06:41:56.104Z,24.14
2018-02-21T06:42:56.081Z,24.17
2018-02-21T06:43:56.201Z,24.21
2018-02-21T06:44:56.021Z,24.24
2018-02-21T06:45:55.986Z,24.21
2018-02-21T06:46:55.970Z,24.14
2018-02-21T06:47:55.940Z,24.09
2018-02-21T06:48:56.073Z,24.15
2018-02-21T06:49:56.091Z,24.14
2018-02-21T06:50:55.873Z,24.08
2018-02-21T06:51:55.833Z,24.02
2018-02-21T06:52:55.815Z,23.92
2018-02-21T06:53:55.851Z,23.94
2018-02-21T06:54:55.974Z,23.90
2018-02-21T06:55:55.733Z,23.78
2018-02-21T06:56:55.703Z,23.92
2018-02-21T06:57:55.687Z,23.94
2018-02-21T06:58:55.658Z,23.94
2018-02-21T06:59:55.824Z,23.82
2018-02-21T07:00:55.594Z,23.84
2018-02-21T07:01:55.591Z,23.84
2018-02-21T07:02:55.624Z,23.84
2018-02-21T07:03:55.522Z,23.78
2018-02-21T07:04:55.644Z,23.82
2018-02-21T07:05:55.467Z,23.93
2018-02-21T07:06:55.440Z,23.90
2018-02-21T07:07:55.423Z,23.81
2018-02-21T07:08:55.388Z,23.84
2018-02-21T07:09:55.366Z,23.77
2018-02-21T07:10:55.546Z,23.75
2018-02-21T07:11:55.306Z,23.77
2018-02-21T07:12:55.284Z,23.63
2018-02-21T07:13:55.291Z,23.64
2018-02-21T07:14:55.228Z,23.62
2018-02-21T07:15:55.199Z,23.63
2018-02-21T07:16:55.386Z,23.66
2018-02-21T07:17:55.151Z,23.64
2018-02-21T07:18:55.120Z,23.75
2018-02-21T07:19:55.106Z,23.72
2018-02-21T07:20:55.075Z,23.84
2018-02-21T07:21:55.038Z,23.77
2018-02-21T07:22:55.174Z,23.78
2018-02-21T07:23:55.012Z,23.87
2018-02-21T07:24:54.963Z,23.82
2018-02-21T07:25:54.996Z,23.82
2018-02-21T07:26:54.910Z,23.87
2018-02-21T07:27:55.086Z,23.82
2018-02-21T07:28:54.853Z,23.87
2018-02-21T07:29:54.841Z,23.75
2018-02-21T07:30:54.806Z,23.77
2018-02-21T07:31:54.773Z,23.77
2018-02-21T07:32:54.953Z,23.78
2018-02-21T07:33:54.721Z,23.81
2018-02-21T07:34:54.704Z,23.85
2018-02-21T07:35:54.673Z,23.87
2018-02-21T07:36:54.664Z,23.89
2018-02-21T07:37:54.888Z,23.90
2018-02-21T07:38:54.593Z,23.90
2018-02-21T07:39:54.564Z,23.92
2018-02-21T07:40:54.547Z,23.99
2018-02-21T07:41:54.531Z,23.96
2018-02-21T07:42:54.696Z,23.87
2018-02-21T07:43:54.453Z,23.92
2018-02-21T07:44:54.504Z,24.02
2018-02-21T07:45:54.409Z,24.00
2018-02-21T07:46:54.385Z,23.99
2018-02-21T07:47:54.356Z,23.81
2018-02-21T07:48:54.559Z,23.78
2018-02-21T07:49:54.295Z,23.77
2018-02-21T07:50:54.275Z,23.74
2018-02-21T07:51:54.253Z,23.66
2018-02-21T07:52:54.216Z,23.59
2018-02-21T07:53:54.206Z,23.50
2018-02-21T07:54:54.367Z,23.45
2018-02-21T07:55:54.156Z,23.47
2018-02-21T07:56:54.120Z,23.44
2018-02-21T07:57:54.110Z,23.50
2018-02-21T07:58:54.071Z,23.44
2018-02-21T07:59:54.077Z,23.44
2018-02-21T08:00:54.211Z,23.47
2018-02-21T08:01:53.977Z,23.45
2018-02-21T08:02:53.959Z,23.45
2018-02-21T08:03:53.938Z,23.34
2018-02-21T08:04:53.906Z,23.47
2018-02-21T08:05:54.082Z,23.52
2018-02-21T08:06:53.858Z,23.52
2018-02-21T08:07:53.824Z,23.55
2018-02-21T08:08:53.819Z,23.60
2018-02-21T08:09:53.772Z,23.62
2018-02-21T08:10:53.901Z,23.67
2018-02-21T08:11:53.723Z,23.55
2018-02-21T08:12:53.692Z,23.40
2018-02-21T08:13:53.674Z,23.42
2018-02-21T08:14:53.643Z,23.55
2018-02-21T08:15:53.821Z,23.45
2018-02-21T08:16:53.584Z,23.44
2018-02-21T08:17:53.562Z,23.53
2018-02-21T08:18:53.532Z,23.59
2018-02-21T08:19:53.556Z,23.56
2018-02-21T08:20:53.690Z,23.59
2018-02-21T08:21:53.455Z,23.66
2018-02-21T08:22:53.435Z,23.72
2018-02-21T08:23:53.411Z,23.67
2018-02-21T08:24:53.386Z,23.66
2018-02-21T08:25:53.354Z,23.70
2018-02-21T08:26:53.534Z,23.78
2018-02-21T08:27:53.294Z,23.90
2018-02-21T08:28:53.266Z,23.89
2018-02-21T08:29:53.235Z,23.92
2018-02-21T08:30:53.227Z,23.90
2018-02-21T08:31:53.196Z,23.90
2018-02-21T08:32:53.375Z,23.97
2018-02-21T08:33:53.145Z,23.97
2018-02-21T08:34:53.118Z,23.94
2018-02-21T08:35:53.087Z,23.89
2018-02-21T08:36:53.057Z,23.84
2018-02-21T08:37:53.195Z,23.84
2018-02-21T08:38:53.024Z,23.79
2018-02-21T08:39:52.994Z,23.92
2018-02-21T08:40:52.963Z,23.90
2018-02-21T08:41:52.928Z,23.93
2018-02-21T08:42:53.109Z,23.97
2018-02-21T08:43:52.886Z,23.97
2018-02-21T08:44:52.859Z,24.00
2018-02-21T08:45:52.840Z,23.99
2018-02-21T08:46:52.815Z,23.94
2018-02-21T08:47:52.961Z,23.97
2018-02-21T08:48:52.740Z,24.07
2018-02-21T08:49:52.716Z,24.07
2018-02-21T08:50:52.700Z,24.15
2018-02-21T08:51:52.662Z,24.26
2018-02-21T08:52:52.840Z,24.18
2018-02-21T08:53:52.600Z,24.24
2018-02-21T08:54:52.584Z,24.22
2018-02-21T08:55:52.569Z,24.36
2018-02-21T08:56:52.533Z,24.34
2018-02-21T08:57:52.715Z,24.36
2018-02-21T08:58:52.481Z,24.36
2018-02-21T08:59:52.470Z,24.36
2018-02-21T09:00:52.426Z,24.33
2018-02-21T09:01:52.404Z,24.48
2018-02-21T09:02:52.362Z,24.44
2018-02-21T09:03:52.547Z,24.42
2018-02-21T09:04:52.332Z,24.45
2018-02-21T09:05:52.283Z,24.52
2018-02-21T09:06:52.266Z,24.46
2018-02-21T09:07:52.250Z,24.40
2018-02-21T09:08:52.236Z,24.39
2018-02-21T09:09:52.386Z,24.33
2018-02-21T09:10:52.157Z,24.32
2018-02-21T09:11:52.131Z,24.24
2018-02-21T09:12:52.116Z,24.14
2018-02-21T09:13:52.084Z,24.15
2018-02-21T09:14:52.198Z,24.03
2018-02-21T09:15:52.027Z,24.09
2018-02-21T09:16:52.005Z,24.07
2018-02-21T09:17:51.985Z,24.04
2018-02-21T09:18:51.946Z,23.97
2018-02-21T09:19:52.086Z,23.93
2018-02-21T09:20:51.893Z,23.85
2018-02-21T09:21:51.884Z,23.99
2018-02-21T09:22:51.838Z,23.92
2018-02-21T09:23:51.827Z,23.81
2018-02-21T09:24:51.999Z,23.84
2018-02-21T09:25:51.759Z,23.84
2018-02-21T09:26:51.745Z,23.78
2018-02-21T09:27:51.722Z,23.79
2018-02-21T09:28:51.680Z,23.85
2018-02-21T09:29:51.862Z,23.82
2018-02-21T09:30:51.654Z,23.90
2018-02-21T09:31:51.617Z,23.85
2018-02-21T09:32:51.572Z,23.75
2018-02-21T09:33:51.553Z,23.87
2018-02-21T09:34:51.687Z,23.87
2018-02-21T09:35:51.525Z,23.92
2018-02-21T09:36:51.482Z,23.79
2018-02-21T09:37:51.454Z,23.89
2018-02-21T09:38:51.435Z,23.87
2018-02-21T09:39:51.409Z,23.87
2018-02-21T09:40:51.563Z,23.89
2018-02-21T09:41:51.353Z,23.90
2018-02-21T09:42:51.358Z,23.90
2018-02-21T09:43:51.302Z,23.93
2018-02-21T09:44:51.255Z,23.90
2018-02-21T09:45:51.233Z,23.93
2018-02-21T09:46:51.359Z,23.85
2018-02-21T09:47:51.194Z,23.96
2018-02-21T09:48:51.173Z,24.11
2018-02-21T09:49:51.125Z,24.08
2018-02-21T09:50:51.114Z,24.02
2018-02-21T09:51:51.292Z,24.12
2018-02-21T09:52:51.063Z,24.19
2018-02-21T09:53:51.035Z,24.14
2018-02-21T09:54:51.007Z,24.15
2018-02-21T09:55:50.982Z,24.22
2018-02-21T09:56:51.147Z,24.19
2018-02-21T09:57:50.926Z,24.24
2018-02-21T09:58:50.885Z,24.21
2018-02-21T09:59:50.860Z,24.14
2018-02-21T10:00:50.837Z,24.19
2018-02-21T10:01:51.011Z,24.40
2018-02-21T10:02:50.789Z,24.48
2018-02-21T10:03:50.759Z,24.42
2018-02-21T10:04:50.728Z,24.48
2018-02-21T10:05:50.704Z,24.45
2018-02-21T10:06:50.929Z,24.55
2018-02-21T10:07:50.650Z,24.51
2018-02-21T10:08:50.632Z,24.55
2018-02-21T10:09:50.600Z,24.51
2018-02-21T10:10:50.581Z,24.40
2018-02-21T10:11:50.541Z,24.39
2018-02-21T10:12:50.672Z,24.42
2018-02-21T10:13:50.493Z,24.39
2018-02-21T10:14:50.462Z,24.42
2018-02-21T10:15:50.451Z,24.46
2018-02-21T10:16:50.412Z,24.40
2018-02-21T10:17:50.396Z,24.32
2018-02-21T10:18:50.562Z,24.30
2018-02-21T10:19:50.341Z,24.29
2018-02-21T10:20:50.302Z,24.22
2018-02-21T10:21:50.278Z,24.11
2018-02-21T10:22:50.254Z,24.07
2018-02-21T10:23:50.239Z,24.03
2018-02-21T10:24:50.403Z,24.15
2018-02-21T10:25:50.174Z,24.12
2018-02-21T10:26:50.143Z,24.09
2018-02-21T10:27:50.145Z,24.08
2018-02-21T10:28:50.096Z,24.29
2018-02-21T10:29:50.284Z,24.39
2018-02-21T10:30:50.045Z,24.48
2018-02-21T10:31:50.015Z,24.42
2018-02-21T10:32:50.063Z,24.33
2018-02-21T10:33:49.964Z,24.26
2018-02-21T10:34:50.134Z,24.22
2018-02-21T10:35:49.926Z,24.07
2018-02-21T10:36:49.884Z,23.92
2018-02-21T10:37:49.858Z,23.92
2018-02-21T10:38:49.839Z,23.82
2018-02-21T10:39:50.025Z,23.85
2018-02-21T10:40:49.780Z,23.85
2018-02-21T10:41:49.759Z,23.87
2018-02-21T10:42:49.749Z,23.82
2018-02-21T10:43:49.715Z,23.89
2018-02-21T10:44:49.678Z,23.87
2018-02-21T10:45:49.902Z,23.78
2018-02-21T10:46:49.637Z,23.75
2018-02-21T10:47:49.599Z,23.87
2018-02-21T10:48:49.611Z,23.89
2018-02-21T10:49:49.561Z,23.89
2018-02-21T10:50:49.530Z,23.87
2018-02-21T10:51:49.703Z,23.82
2018-02-21T10:52:49.470Z,23.89
2018-02-21T10:53:49.441Z,23.82
2018-02-21T10:54:49.411Z,23.97
2018-02-21T10:55:49.381Z,24.08
2018-02-21T10:56:49.373Z,24.04
2018-02-21T10:57:49.541Z,24.11
2018-02-21T10:58:49.317Z,24.14
2018-02-21T10:59:49.289Z,24.19
2018-02-21T11:00:49.269Z,24.34
2018-02-21T11:01:49.223Z,24.36
2018-02-21T11:02:49.205Z,24.33
2018-02-21T11:03:49.378Z,24.37
2018-02-21T11:04:49.142Z,24.34
2018-02-21T11:05:49.132Z,24.36
2018-02-21T11:06:49.114Z,24.22
2018-02-21T11:07:49.065Z,24.24
2018-02-21T11:08:49.206Z,24.26
2018-02-21T11:09:49.031Z,24.27
2018-02-21T11:10:48.985Z,24.15
2018-02-21T11:11:48.962Z,24.12
2018-02-21T11:12:48.952Z,24.09
2018-02-21T11:13:49.107Z,24.07
2018-02-21T11:14:48.886Z,24.08
2018-02-21T11:15:48.860Z,24.08
2018-02-21T11:16:48.829Z,24.03
2018-02-21T11:17:48.807Z,23.97
2018-02-21T11:18:48.929Z,24.00
2018-02-21T11:19:48.749Z,24.04
2018-02-21T11:20:48.733Z,24.07
2018-02-21T11:21:48.699Z,24.08
2018-02-21T11:22:48.667Z,23.92
2018-02-21T11:23:48.648Z,23.97
2018-02-21T11:24:48.883Z,23.93
2018-02-21T11:25:48.605Z,23.78
2018-02-21T11:26:48.571Z,23.93
2018-02-21T11:27:48.537Z,23.93
2018-02-21T11:28:48.499Z,23.89
2018-02-21T11:29:48.556Z,23.90
2018-02-21T11:30:48.663Z,24.02
2018-02-21T11:31:48.431Z,23.94
2018-02-21T11:32:48.410Z,23.90
2018-02-21T11:33:48.381Z,23.82
2018-02-21T11:34:48.353Z,23.75
2018-02-21T11:35:48.341Z,23.84
2018-02-21T11:36:48.573Z,23.89
2018-02-21T11:37:48.291Z,23.82
2018-02-21T11:38:48.254Z,23.84
2018-02-21T11:39:48.216Z,23.92
2018-02-21T11:40:48.209Z,23.96
2018-02-21T11:41:48.175Z,23.87
2018-02-21T11:42:48.353Z,23.94
2018-02-21T11:43:48.123Z,23.74
2018-02-21T11:44:48.103Z,23.67
2018-02-21T11:45:48.080Z,23.64
2018-02-21T11:46:48.048Z,23.71
2018-02-21T11:47:48.244Z,23.74
2018-02-21T11:48:48.061Z,23.66
2018-02-21T11:49:47.964Z,23.64
2018-02-21T11:50:47.935Z,23.70
2018-02-21T11:51:47.912Z,23.55
2018-02-21T11:52:48.084Z,23.64
2018-02-21T11:53:47.877Z,23.64
2018-02-21T11:54:47.816Z,23.64
2018-02-21T11:55:47.819Z,23.72
2018-02-21T11:56:47.780Z,23.78
2018-02-21T11:57:47.804Z,23.84
2018-02-21T11:58:47.938Z,23.90
2018-02-21T11:59:47.732Z,23.94
2018-02-21T12:00:47.709Z,23.93
2018-02-21T12:01:47.640Z,23.90
2018-02-21T12:02:47.633Z,23.97
2018-02-21T12:03:47.640Z,23.97
2018-02-21T12:04:47.757Z,23.96
2018-02-21T12:05:47.547Z,24.04
2018-02-21T12:06:47.526Z,24.14
2018-02-21T12:07:47.479Z,24.24
2018-02-21T12:08:47.470Z,24.34
2018-02-21T12:09:47.480Z,24.37
2018-02-21T12:10:47.615Z,24.44
2018-02-21T12:11:47.364Z,24.39
2018-02-21T12:12:47.358Z,24.44
2018-02-21T12:13:47.372Z,24.46
2018-02-21T12:14:47.303Z,24.36
2018-02-21T12:15:47.268Z,24.49
2018-02-21T12:16:47.459Z,24.39
2018-02-21T12:17:47.227Z,24.52
2018-02-21T12:18:47.210Z,24.48
2018-02-21T12:19:47.164Z,24.56
2018-02-21T12:20:47.131Z,24.58
2018-02-21T12:21:47.113Z,24.66
2018-02-21T12:22:47.235Z,24.58
2018-02-21T12:23:47.109Z,24.54
2018-02-21T12:24:47.030Z,24.56
2018-02-21T12:25:47.003Z,24.64
2018-02-21T12:26:46.992Z,24.69
2018-02-21T12:27:47.154Z,24.77
2018-02-21T12:28:46.926Z,24.70
2018-02-21T12:29:46.894Z,24.71
2018-02-21T12:30:46.897Z,24.74
2018-02-21T12:31:46.896Z,24.82
2018-02-21T12:32:46.840Z,25.00
2018-02-21T12:33:46.995Z,25.05
2018-02-21T12:34:46.765Z,25.09
2018-02-21T12:35:46.746Z,25.17
2018-02-21T12:36:46.715Z,25.11
2018-02-21T12:37:46.768Z,25.20
2018-02-21T12:38:46.677Z,25.29
2018-02-21T12:39:46.887Z,25.27
2018-02-21T12:40:46.628Z,25.42
2018-02-21T12:41:46.622Z,25.33
2018-02-21T12:42:46.609Z,25.34
2018-02-21T12:43:46.538Z,25.34
2018-02-21T12:44:46.757Z,25.37
2018-02-21T12:45:46.500Z,25.44
2018-02-21T12:46:46.669Z,25.37
2018-02-21T12:47:46.429Z,25.54
2018-02-21T12:48:46.417Z,25.57
2018-02-21T12:49:46.382Z,25.62
2018-02-21T12:50:46.551Z,25.69
2018-02-21T12:51:46.332Z,25.71
2018-02-21T12:52:46.369Z,25.81
2018-02-21T12:53:46.289Z,25.88